sensor_id;sensor_type;location;lat;lon;timestamp;pressure;altitude;pressure_sealevel;temperature;humidity
40940;BME280;26666;50.156;7.700;2022-10-22T00:03:10;100018.31;;;14.06;100.00
40940;BME280;26666;50.156;7.700;2022-10-22T00:08:12;100024.31;;;14.24;100.00
40940;BME280;26666;50.156;7.700;2022-10-22T00:13:15;100021.84;;;14.31;100.00
40940;BME280;26666;50.156;7.700;2022-10-22T00:18:16;100012.72;;;14.42;100.00
40940;BME280;26666;50.156;7.700;2022-10-22T00:23:18;99996.09;;;14.23;100.00
40940;BME280;26666;50.156;7.700;2022-10-22T00:28:19;99973.81;;;14.16;100.00
40940;BME280;26666;50.156;7.700;2022-10-22T00:33:21;99972.69;;;14.35;100.00
40940;BME280;26666;50.156;7.700;2022-10-22T00:38:23;99970.69;;;14.37;100.00
40940;BME280;26666;50.156;7.700;2022-10-22T00:43:26;99989.81;;;14.32;100.00
40940;BME280;26666;50.156;7.700;2022-10-22T00:48:30;99998.59;;;14.25;100.00
40940;BME280;26666;50.156;7.700;2022-10-22T00:53:38;99986.06;;;14.00;100.00
40940;BME280;26666;50.156;7.700;2022-10-22T00:58:48;99989.09;;;14.06;100.00
40940;BME280;26666;50.156;7.700;2022-10-22T01:03:51;99982.28;;;14.03;100.00
40940;BME280;26666;50.156;7.700;2022-10-22T01:09:17;99987.75;;;14.02;100.00
40940;BME280;26666;50.156;7.700;2022-10-22T01:19:52;99994.38;;;13.97;100.00
40940;BME280;26666;50.156;7.700;2022-10-22T01:25:18;100001.03;;;14.02;100.00
40940;BME280;26666;50.156;7.700;2022-10-22T01:30:23;99990.88;;;13.97;100.00
40940;BME280;26666;50.156;7.700;2022-10-22T01:35:28;99990.22;;;13.95;100.00
40940;BME280;26666;50.156;7.700;2022-10-22T01:40:32;99997.88;;;13.98;100.00
40940;BME280;26666;50.156;7.700;2022-10-22T01:45:41;99998.19;;;13.95;100.00
40940;BME280;26666;50.156;7.700;2022-10-22T01:51:12;99997.72;;;13.99;100.00
40940;BME280;26666;50.156;7.700;2022-10-22T02:02:05;100010.63;;;13.94;100.00
40940;BME280;26666;50.156;7.700;2022-10-22T02:07:14;100011.66;;;13.93;100.00
40940;BME280;26666;50.156;7.700;2022-10-22T02:12:18;100018.06;;;13.83;100.00
40940;BME280;26666;50.156;7.700;2022-10-22T02:17:21;100022.41;;;13.84;100.00
40940;BME280;26666;50.156;7.700;2022-10-22T02:22:25;100022.06;;;13.87;100.00
40940;BME280;26666;50.156;7.700;2022-10-22T02:27:35;100017.25;;;13.90;100.00
40940;BME280;26666;50.156;7.700;2022-10-22T02:32:49;100009.94;;;13.84;100.00
40940;BME280;26666;50.156;7.700;2022-10-22T02:37:52;100008.63;;;13.88;100.00
40940;BME280;26666;50.156;7.700;2022-10-22T02:42:55;100010.97;;;13.91;100.00
40940;BME280;26666;50.156;7.700;2022-10-22T02:47:57;100015.75;;;13.79;100.00
40940;BME280;26666;50.156;7.700;2022-10-22T02:52:58;100017.75;;;13.86;100.00
40940;BME280;26666;50.156;7.700;2022-10-22T02:58:00;100020.44;;;13.94;100.00
40940;BME280;26666;50.156;7.700;2022-10-22T03:03:01;100023.75;;;13.88;100.00
40940;BME280;26666;50.156;7.700;2022-10-22T03:08:03;100026.78;;;14.01;100.00
40940;BME280;26666;50.156;7.700;2022-10-22T03:13:04;100024.81;;;14.11;100.00
40940;BME280;26666;50.156;7.700;2022-10-22T03:18:06;100021.66;;;14.16;100.00
40940;BME280;26666;50.156;7.700;2022-10-22T03:23:09;100027.91;;;13.98;100.00
40940;BME280;26666;50.156;7.700;2022-10-22T03:28:14;100043.50;;;13.93;100.00
40940;BME280;26666;50.156;7.700;2022-10-22T03:33:17;100051.81;;;13.98;100.00
40940;BME280;26666;50.156;7.700;2022-10-22T03:38:18;100060.63;;;13.99;100.00
40940;BME280;26666;50.156;7.700;2022-10-22T03:43:20;100073.41;;;13.95;100.00
40940;BME280;26666;50.156;7.700;2022-10-22T03:48:22;100077.25;;;14.01;100.00
40940;BME280;26666;50.156;7.700;2022-10-22T03:53:23;100085.69;;;13.96;100.00
40940;BME280;26666;50.156;7.700;2022-10-22T03:58:25;100093.63;;;13.96;100.00
40940;BME280;26666;50.156;7.700;2022-10-22T04:03:26;100091.50;;;14.00;100.00
40940;BME280;26666;50.156;7.700;2022-10-22T04:08:27;100102.94;;;14.00;100.00
40940;BME280;26666;50.156;7.700;2022-10-22T04:13:29;100108.94;;;14.03;100.00
40940;BME280;26666;50.156;7.700;2022-10-22T04:18:30;100110.78;;;14.02;100.00
40940;BME280;26666;50.156;7.700;2022-10-22T04:23:32;100113.28;;;14.04;100.00
40940;BME280;26666;50.156;7.700;2022-10-22T04:28:34;100122.22;;;14.03;100.00
40940;BME280;26666;50.156;7.700;2022-10-22T04:33:36;100134.19;;;14.07;100.00
40940;BME280;26666;50.156;7.700;2022-10-22T04:38:39;100139.56;;;14.15;100.00
40940;BME280;26666;50.156;7.700;2022-10-22T04:43:41;100152.19;;;14.13;100.00
40940;BME280;26666;50.156;7.700;2022-10-22T04:48:44;100152.66;;;14.16;100.00
40940;BME280;26666;50.156;7.700;2022-10-22T04:53:46;100154.19;;;14.19;100.00
40940;BME280;26666;50.156;7.700;2022-10-22T04:58:55;100152.50;;;14.18;100.00
40940;BME280;26666;50.156;7.700;2022-10-22T05:03:59;100151.72;;;14.34;100.00
40940;BME280;26666;50.156;7.700;2022-10-22T05:09:05;100163.41;;;14.41;100.00
40940;BME280;26666;50.156;7.700;2022-10-22T05:14:07;100161.88;;;14.30;100.00
40940;BME280;26666;50.156;7.700;2022-10-22T05:19:15;100158.50;;;14.20;100.00
40940;BME280;26666;50.156;7.700;2022-10-22T05:24:17;100160.84;;;14.23;100.00
40940;BME280;26666;50.156;7.700;2022-10-22T05:29:18;100159.22;;;14.30;100.00
40940;BME280;26666;50.156;7.700;2022-10-22T05:34:20;100165.88;;;14.34;100.00
40940;BME280;26666;50.156;7.700;2022-10-22T05:39:22;100164.56;;;14.38;100.00
40940;BME280;26666;50.156;7.700;2022-10-22T05:44:23;100169.88;;;14.38;100.00
40940;BME280;26666;50.156;7.700;2022-10-22T05:49:25;100172.53;;;14.38;100.00
40940;BME280;26666;50.156;7.700;2022-10-22T05:54:26;100176.03;;;14.39;100.00
40940;BME280;26666;50.156;7.700;2022-10-22T05:59:28;100179.34;;;14.41;100.00
40940;BME280;26666;50.156;7.700;2022-10-22T06:04:29;100187.81;;;14.36;100.00
40940;BME280;26666;50.156;7.700;2022-10-22T06:09:35;100187.28;;;14.33;100.00
40940;BME280;26666;50.156;7.700;2022-10-22T06:14:37;100194.09;;;14.35;100.00
40940;BME280;26666;50.156;7.700;2022-10-22T06:19:39;100207.72;;;14.32;100.00
40940;BME280;26666;50.156;7.700;2022-10-22T06:24:40;100214.66;;;14.25;100.00
40940;BME280;26666;50.156;7.700;2022-10-22T06:29:46;100235.94;;;14.25;100.00
40940;BME280;26666;50.156;7.700;2022-10-22T06:34:48;100234.25;;;14.24;100.00
40940;BME280;26666;50.156;7.700;2022-10-22T06:39:49;100242.69;;;14.19;100.00
40940;BME280;26666;50.156;7.700;2022-10-22T06:44:51;100243.53;;;14.20;100.00
40940;BME280;26666;50.156;7.700;2022-10-22T06:49:53;100261.97;;;14.22;100.00
40940;BME280;26666;50.156;7.700;2022-10-22T06:54:54;100267.78;;;14.17;100.00
40940;BME280;26666;50.156;7.700;2022-10-22T06:59:56;100279.50;;;14.32;100.00
40940;BME280;26666;50.156;7.700;2022-10-22T07:04:58;100285.06;;;14.21;100.00
40940;BME280;26666;50.156;7.700;2022-10-22T07:10:00;100292.56;;;14.26;100.00
40940;BME280;26666;50.156;7.700;2022-10-22T07:15:02;100297.63;;;14.37;100.00
40940;BME280;26666;50.156;7.700;2022-10-22T07:20:04;100306.38;;;14.55;100.00
40940;BME280;26666;50.156;7.700;2022-10-22T07:25:06;100305.59;;;14.63;100.00
40940;BME280;26666;50.156;7.700;2022-10-22T07:30:08;100319.88;;;14.62;100.00
40940;BME280;26666;50.156;7.700;2022-10-22T07:35:09;100317.69;;;14.92;100.00
40940;BME280;26666;50.156;7.700;2022-10-22T07:40:11;100330.22;;;15.08;100.00
40940;BME280;26666;50.156;7.700;2022-10-22T07:50:34;100350.38;;;15.77;100.00
40940;BME280;26666;50.156;7.700;2022-10-22T07:55:36;100355.53;;;15.87;100.00
40940;BME280;26666;50.156;7.700;2022-10-22T08:00:37;100353.22;;;15.84;100.00
40940;BME280;26666;50.156;7.700;2022-10-22T08:05:39;100366.84;;;15.89;100.00
40940;BME280;26666;50.156;7.700;2022-10-22T08:10:42;100361.88;;;15.86;100.00
40940;BME280;26666;50.156;7.700;2022-10-22T08:15:44;100370.84;;;15.85;100.00
40940;BME280;26666;50.156;7.700;2022-10-22T08:20:45;100372.38;;;15.96;100.00
40940;BME280;26666;50.156;7.700;2022-10-22T08:25:47;100383.84;;;15.88;100.00
40940;BME280;26666;50.156;7.700;2022-10-22T08:30:48;100382.19;;;16.12;100.00
40940;BME280;26666;50.156;7.700;2022-10-22T08:35:50;100386.38;;;15.98;100.00
40940;BME280;26666;50.156;7.700;2022-10-22T08:41:02;100382.22;;;16.04;100.00
40940;BME280;26666;50.156;7.700;2022-10-22T08:51:52;100387.88;;;16.17;100.00
40940;BME280;26666;50.156;7.700;2022-10-22T08:57:37;100381.84;;;16.31;100.00
40940;BME280;26666;50.156;7.700;2022-10-22T09:08:01;100390.84;;;16.47;100.00
40940;BME280;26666;50.156;7.700;2022-10-22T09:13:03;100403.81;;;16.50;100.00
40940;BME280;26666;50.156;7.700;2022-10-22T09:18:15;100414.50;;;16.50;100.00
40940;BME280;26666;50.156;7.700;2022-10-22T09:23:33;100420.19;;;16.39;100.00
40940;BME280;26666;50.156;7.700;2022-10-22T09:28:37;100416.50;;;16.48;100.00
40940;BME280;26666;50.156;7.700;2022-10-22T09:33:41;100418.88;;;16.34;100.00
40940;BME280;26666;50.156;7.700;2022-10-22T09:38:51;100421.50;;;16.18;100.00
40940;BME280;26666;50.156;7.700;2022-10-22T09:43:53;100436.84;;;16.08;100.00
40940;BME280;26666;50.156;7.700;2022-10-22T09:48:59;100427.50;;;16.28;100.00
40940;BME280;26666;50.156;7.700;2022-10-22T09:54:14;100421.31;;;16.69;100.00
40940;BME280;26666;50.156;7.700;2022-10-22T09:59:17;100426.69;;;16.36;100.00
40940;BME280;26666;50.156;7.700;2022-10-22T10:04:19;100430.19;;;16.20;100.00
40940;BME280;26666;50.156;7.700;2022-10-22T10:09:24;100425.19;;;16.25;100.00
40940;BME280;26666;50.156;7.700;2022-10-22T10:19:48;100421.50;;;16.51;100.00
40940;BME280;26666;50.156;7.700;2022-10-22T10:30:19;100440.16;;;16.75;100.00
40940;BME280;26666;50.156;7.700;2022-10-22T10:35:42;100438.66;;;16.89;100.00
40940;BME280;26666;50.156;7.700;2022-10-22T10:40:52;100437.91;;;17.12;100.00
40940;BME280;26666;50.156;7.700;2022-10-22T10:46:05;100445.91;;;17.20;100.00
40940;BME280;26666;50.156;7.700;2022-10-22T10:56:36;100444.19;;;17.36;100.00
40940;BME280;26666;50.156;7.700;2022-10-22T11:02:01;100447.47;;;16.98;100.00
40940;BME280;26666;50.156;7.700;2022-10-22T11:07:15;100446.38;;;17.32;100.00
40940;BME280;26666;50.156;7.700;2022-10-22T11:12:38;100443.44;;;17.50;100.00
40940;BME280;26666;50.156;7.700;2022-10-22T11:17:45;100440.88;;;17.25;100.00
40940;BME280;26666;50.156;7.700;2022-10-22T11:22:56;100443.91;;;17.22;100.00
40940;BME280;26666;50.156;7.700;2022-10-22T11:28:25;100442.63;;;17.02;100.00
40940;BME280;26666;50.156;7.700;2022-10-22T11:33:39;100451.47;;;17.10;100.00
40940;BME280;26666;50.156;7.700;2022-10-22T11:38:42;100450.19;;;17.29;100.00
40940;BME280;26666;50.156;7.700;2022-10-22T11:49:18;100448.97;;;16.92;100.00
40940;BME280;26666;50.156;7.700;2022-10-22T11:59:46;100447.81;;;16.79;100.00
40940;BME280;26666;50.156;7.700;2022-10-22T12:04:48;100440.00;;;16.85;100.00
40940;BME280;26666;50.156;7.700;2022-10-22T12:09:51;100436.44;;;17.09;100.00
40940;BME280;26666;50.156;7.700;2022-10-22T12:14:56;100445.63;;;17.07;100.00
40940;BME280;26666;50.156;7.700;2022-10-22T12:20:01;100442.56;;;17.26;100.00
40940;BME280;26666;50.156;7.700;2022-10-22T12:25:30;100438.09;;;17.10;100.00
40940;BME280;26666;50.156;7.700;2022-10-22T12:30:36;100439.81;;;16.95;100.00
40940;BME280;26666;50.156;7.700;2022-10-22T12:35:43;100444.31;;;17.03;100.00
40940;BME280;26666;50.156;7.700;2022-10-22T12:40:45;100436.50;;;16.68;100.00
40940;BME280;26666;50.156;7.700;2022-10-22T12:45:50;100439.81;;;16.87;100.00
40940;BME280;26666;50.156;7.700;2022-10-22T12:50:54;100456.00;;;16.93;100.00
40940;BME280;26666;50.156;7.700;2022-10-22T12:56:00;100455.81;;;16.87;100.00
40940;BME280;26666;50.156;7.700;2022-10-22T13:01:03;100455.81;;;16.79;100.00
40940;BME280;26666;50.156;7.700;2022-10-22T13:11:19;100447.47;;;16.98;100.00
40940;BME280;26666;50.156;7.700;2022-10-22T13:16:24;100444.13;;;16.96;100.00
40940;BME280;26666;50.156;7.700;2022-10-22T13:21:35;100443.50;;;16.86;100.00
40940;BME280;26666;50.156;7.700;2022-10-22T13:26:37;100448.47;;;17.05;100.00
40940;BME280;26666;50.156;7.700;2022-10-22T13:31:47;100431.25;;;17.08;100.00
40940;BME280;26666;50.156;7.700;2022-10-22T13:36:49;100429.53;;;17.23;100.00
40940;BME280;26666;50.156;7.700;2022-10-22T13:41:51;100424.19;;;17.23;100.00
40940;BME280;26666;50.156;7.700;2022-10-22T13:46:52;100422.66;;;16.81;100.00
40940;BME280;26666;50.156;7.700;2022-10-22T13:51:54;100424.50;;;16.89;100.00
40940;BME280;26666;50.156;7.700;2022-10-22T13:56:55;100425.63;;;16.78;100.00
40940;BME280;26666;50.156;7.700;2022-10-22T14:01:57;100425.16;;;16.91;100.00
40940;BME280;26666;50.156;7.700;2022-10-22T14:07:00;100420.34;;;16.62;100.00
40940;BME280;26666;50.156;7.700;2022-10-22T14:12:15;100416.16;;;16.59;100.00
40940;BME280;26666;50.156;7.700;2022-10-22T14:17:17;100417.50;;;16.55;100.00
40940;BME280;26666;50.156;7.700;2022-10-22T14:22:19;100418.34;;;16.47;100.00
40940;BME280;26666;50.156;7.700;2022-10-22T14:27:20;100422.88;;;16.39;100.00
40940;BME280;26666;50.156;7.700;2022-10-22T14:32:22;100421.84;;;16.40;100.00
40940;BME280;26666;50.156;7.700;2022-10-22T14:37:24;100424.84;;;16.45;100.00
40940;BME280;26666;50.156;7.700;2022-10-22T14:42:26;100424.69;;;16.30;100.00
40940;BME280;26666;50.156;7.700;2022-10-22T14:47:28;100432.00;;;16.36;100.00
40940;BME280;26666;50.156;7.700;2022-10-22T14:52:30;100440.16;;;16.26;100.00
40940;BME280;26666;50.156;7.700;2022-10-22T14:57:31;100430.69;;;16.15;100.00
40940;BME280;26666;50.156;7.700;2022-10-22T15:02:33;100440.53;;;16.15;100.00
40940;BME280;26666;50.156;7.700;2022-10-22T15:07:35;100430.19;;;16.12;100.00
40940;BME280;26666;50.156;7.700;2022-10-22T15:12:37;100440.69;;;16.22;100.00
40940;BME280;26666;50.156;7.700;2022-10-22T15:17:38;100434.84;;;16.18;100.00
40940;BME280;26666;50.156;7.700;2022-10-22T15:22:40;100436.00;;;16.24;100.00
40940;BME280;26666;50.156;7.700;2022-10-22T15:27:43;100430.16;;;16.28;100.00
40940;BME280;26666;50.156;7.700;2022-10-22T15:32:51;100430.53;;;16.25;100.00
40940;BME280;26666;50.156;7.700;2022-10-22T15:37:52;100439.00;;;16.12;100.00
40940;BME280;26666;50.156;7.700;2022-10-22T15:42:54;100440.50;;;15.99;100.00
40940;BME280;26666;50.156;7.700;2022-10-22T15:47:56;100438.81;;;15.89;100.00
40940;BME280;26666;50.156;7.700;2022-10-22T15:52:57;100437.59;;;15.75;100.00
40940;BME280;26666;50.156;7.700;2022-10-22T15:57:58;100442.38;;;15.64;100.00
40940;BME280;26666;50.156;7.700;2022-10-22T16:03:04;100437.53;;;15.51;100.00
40940;BME280;26666;50.156;7.700;2022-10-22T16:08:05;100434.31;;;15.39;100.00
40940;BME280;26666;50.156;7.700;2022-10-22T16:13:07;100446.91;;;15.29;100.00
40940;BME280;26666;50.156;7.700;2022-10-22T16:18:08;100431.22;;;15.17;100.00
40940;BME280;26666;50.156;7.700;2022-10-22T16:23:10;100448.16;;;15.08;100.00
40940;BME280;26666;50.156;7.700;2022-10-22T16:28:12;100453.59;;;14.98;100.00
40940;BME280;26666;50.156;7.700;2022-10-22T16:33:14;100458.91;;;14.98;100.00
40940;BME280;26666;50.156;7.700;2022-10-22T16:38:15;100462.50;;;14.89;100.00
40940;BME280;26666;50.156;7.700;2022-10-22T16:43:17;100470.28;;;14.83;100.00
40940;BME280;26666;50.156;7.700;2022-10-22T16:48:19;100478.50;;;14.71;100.00
40940;BME280;26666;50.156;7.700;2022-10-22T16:53:20;100483.69;;;14.73;100.00
40940;BME280;26666;50.156;7.700;2022-10-22T16:58:22;100491.63;;;14.55;100.00
40940;BME280;26666;50.156;7.700;2022-10-22T17:03:23;100495.25;;;14.46;100.00
40940;BME280;26666;50.156;7.700;2022-10-22T17:08:33;100503.88;;;14.30;100.00
40940;BME280;26666;50.156;7.700;2022-10-22T17:13:37;100507.38;;;14.30;100.00
40940;BME280;26666;50.156;7.700;2022-10-22T17:18:42;100517.78;;;14.24;100.00
40940;BME280;26666;50.156;7.700;2022-10-22T17:23:56;100519.22;;;14.18;100.00
40940;BME280;26666;50.156;7.700;2022-10-22T17:28:57;100516.25;;;14.21;100.00
40940;BME280;26666;50.156;7.700;2022-10-22T17:33:59;100516.34;;;14.11;100.00
40940;BME280;26666;50.156;7.700;2022-10-22T17:39:02;100530.81;;;13.99;100.00
40940;BME280;26666;50.156;7.700;2022-10-22T17:44:06;100528.31;;;13.97;100.00
40940;BME280;26666;50.156;7.700;2022-10-22T17:49:17;100543.44;;;13.87;100.00
40940;BME280;26666;50.156;7.700;2022-10-22T17:54:19;100552.19;;;13.79;100.00
40940;BME280;26666;50.156;7.700;2022-10-22T17:59:20;100544.78;;;13.73;100.00
40940;BME280;26666;50.156;7.700;2022-10-22T18:04:21;100553.88;;;13.71;100.00
40940;BME280;26666;50.156;7.700;2022-10-22T18:09:23;100548.56;;;13.71;100.00
40940;BME280;26666;50.156;7.700;2022-10-22T18:14:25;100553.38;;;13.57;100.00
40940;BME280;26666;50.156;7.700;2022-10-22T18:19:27;100547.13;;;13.49;100.00
40940;BME280;26666;50.156;7.700;2022-10-22T18:24:28;100545.59;;;13.46;100.00
40940;BME280;26666;50.156;7.700;2022-10-22T18:29:30;100541.16;;;13.37;100.00
40940;BME280;26666;50.156;7.700;2022-10-22T18:34:32;100542.28;;;13.34;100.00
40940;BME280;26666;50.156;7.700;2022-10-22T18:39:34;100540.47;;;13.25;100.00
40940;BME280;26666;50.156;7.700;2022-10-22T18:44:35;100541.16;;;13.27;100.00
40940;BME280;26666;50.156;7.700;2022-10-22T18:49:37;100537.53;;;13.18;100.00
40940;BME280;26666;50.156;7.700;2022-10-22T18:54:39;100525.53;;;13.24;100.00
40940;BME280;26666;50.156;7.700;2022-10-22T18:59:40;100541.91;;;13.10;100.00
40940;BME280;26666;50.156;7.700;2022-10-22T19:04:43;100538.41;;;12.99;100.00
40940;BME280;26666;50.156;7.700;2022-10-22T19:09:44;100534.78;;;13.00;100.00
40940;BME280;26666;50.156;7.700;2022-10-22T19:14:46;100533.13;;;12.90;100.00
40940;BME280;26666;50.156;7.700;2022-10-22T19:19:47;100534.41;;;12.86;100.00
40940;BME280;26666;50.156;7.700;2022-10-22T19:24:49;100542.34;;;12.86;100.00
40940;BME280;26666;50.156;7.700;2022-10-22T19:29:50;100539.97;;;12.92;100.00
40940;BME280;26666;50.156;7.700;2022-10-22T19:34:52;100535.09;;;12.88;100.00
40940;BME280;26666;50.156;7.700;2022-10-22T19:39:53;100538.72;;;12.87;100.00
40940;BME280;26666;50.156;7.700;2022-10-22T19:44:55;100532.03;;;12.82;100.00
40940;BME280;26666;50.156;7.700;2022-10-22T19:49:57;100527.03;;;12.70;100.00
40940;BME280;26666;50.156;7.700;2022-10-22T19:54:58;100523.09;;;12.83;100.00
40940;BME280;26666;50.156;7.700;2022-10-22T20:00:00;100521.28;;;12.74;100.00
40940;BME280;26666;50.156;7.700;2022-10-22T20:05:01;100521.03;;;12.68;100.00
40940;BME280;26666;50.156;7.700;2022-10-22T20:10:03;100536.50;;;12.72;100.00
40940;BME280;26666;50.156;7.700;2022-10-22T20:15:05;100551.00;;;12.68;100.00
40940;BME280;26666;50.156;7.700;2022-10-22T20:20:07;100547.97;;;12.53;100.00
40940;BME280;26666;50.156;7.700;2022-10-22T20:25:10;100542.91;;;12.70;100.00
40940;BME280;26666;50.156;7.700;2022-10-22T20:30:12;100548.94;;;12.62;100.00
40940;BME280;26666;50.156;7.700;2022-10-22T20:35:14;100547.09;;;12.53;100.00
40940;BME280;26666;50.156;7.700;2022-10-22T20:40:16;100545.44;;;12.52;100.00
40940;BME280;26666;50.156;7.700;2022-10-22T20:45:17;100549.75;;;12.43;100.00
40940;BME280;26666;50.156;7.700;2022-10-22T20:50:19;100544.63;;;12.41;100.00
40940;BME280;26666;50.156;7.700;2022-10-22T20:55:22;100536.50;;;12.53;100.00
40940;BME280;26666;50.156;7.700;2022-10-22T21:00:23;100531.50;;;12.40;100.00
40940;BME280;26666;50.156;7.700;2022-10-22T21:05:25;100520.34;;;12.36;100.00
40940;BME280;26666;50.156;7.700;2022-10-22T21:10:27;100533.44;;;12.28;100.00
40940;BME280;26666;50.156;7.700;2022-10-22T21:15:33;100533.44;;;12.28;100.00
40940;BME280;26666;50.156;7.700;2022-10-22T21:20:34;100527.16;;;12.29;100.00
40940;BME280;26666;50.156;7.700;2022-10-22T21:25:36;100536.78;;;12.40;100.00
40940;BME280;26666;50.156;7.700;2022-10-22T21:30:46;100528.53;;;12.23;100.00
40940;BME280;26666;50.156;7.700;2022-10-22T21:35:54;100535.22;;;12.18;100.00
40940;BME280;26666;50.156;7.700;2022-10-22T21:40:56;100534.25;;;12.09;100.00
40940;BME280;26666;50.156;7.700;2022-10-22T21:46:06;100543.72;;;12.12;100.00
40940;BME280;26666;50.156;7.700;2022-10-22T21:51:16;100549.72;;;12.14;100.00
40940;BME280;26666;50.156;7.700;2022-10-22T21:56:20;100550.13;;;12.09;100.00
40940;BME280;26666;50.156;7.700;2022-10-22T22:01:23;100550.66;;;11.93;100.00
40940;BME280;26666;50.156;7.700;2022-10-22T22:06:26;100551.94;;;11.99;100.00
40940;BME280;26666;50.156;7.700;2022-10-22T22:11:33;100541.34;;;11.99;100.00
40940;BME280;26666;50.156;7.700;2022-10-22T22:16:34;100536.25;;;11.86;100.00
40940;BME280;26666;50.156;7.700;2022-10-22T22:21:38;100535.59;;;11.94;100.00
40940;BME280;26666;50.156;7.700;2022-10-22T22:26:39;100530.38;;;11.82;100.00
40940;BME280;26666;50.156;7.700;2022-10-22T22:31:41;100522.88;;;11.88;100.00
40940;BME280;26666;50.156;7.700;2022-10-22T22:36:45;100520.88;;;11.70;100.00
40940;BME280;26666;50.156;7.700;2022-10-22T22:41:47;100519.50;;;11.76;100.00
40940;BME280;26666;50.156;7.700;2022-10-22T22:46:49;100518.47;;;11.67;100.00
40940;BME280;26666;50.156;7.700;2022-10-22T22:51:50;100504.53;;;11.65;100.00
40940;BME280;26666;50.156;7.700;2022-10-22T22:56:52;100505.94;;;11.69;100.00
40940;BME280;26666;50.156;7.700;2022-10-22T23:01:53;100505.94;;;11.69;100.00
40940;BME280;26666;50.156;7.700;2022-10-22T23:06:55;100501.78;;;11.67;100.00
40940;BME280;26666;50.156;7.700;2022-10-22T23:11:56;100501.06;;;11.64;100.00
40940;BME280;26666;50.156;7.700;2022-10-22T23:16:58;100495.31;;;11.50;100.00
40940;BME280;26666;50.156;7.700;2022-10-22T23:21:59;100500.47;;;11.51;100.00
40940;BME280;26666;50.156;7.700;2022-10-22T23:27:01;100495.03;;;11.53;100.00
40940;BME280;26666;50.156;7.700;2022-10-22T23:32:04;100498.09;;;11.48;100.00
40940;BME280;26666;50.156;7.700;2022-10-22T23:37:09;100486.66;;;11.48;100.00
40940;BME280;26666;50.156;7.700;2022-10-22T23:42:12;100499.63;;;11.51;100.00
40940;BME280;26666;50.156;7.700;2022-10-22T23:47:13;100501.97;;;11.44;100.00
40940;BME280;26666;50.156;7.700;2022-10-22T23:52:15;100495.97;;;11.42;100.00
40940;BME280;26666;50.156;7.700;2022-10-22T23:57:16;100502.38;;;11.39;100.00
